Hansa Rendsburg — A8CF4 — position and weather

sailwx.info

Track history (hours):
 
Tides and Currents Weather Stations Pressure Air Temp Water Temp Dewpoint Dewpoint Depression Visibility Wind Speed Wind Dir Waves Ship Positions

Hansa Rendsburg

Last reported at 2016-Nov-27 20:15 UTC. Time now 2016-Dec-03 11:43 UTC.
Position N 01°14' E 104°00'.

Type: Ship (hazmat cat A). MMSI: 636090636.

Date/timePositionNaut miles runAvg speedWind from/ knotsBaromVisibWave heightAir tempDewpointWater temp
2016-Nov-27 20:15N 01°14' E 104°00'912.6
2016-Nov-27 19:32N 01°11' E 103°52'8612.2
2016-Nov-27 12:32N 01°44' E 102°32'1414.0
2016-Nov-27 11:32N 01°50' E 102°20'5 0.1
2016-Nov-25 14:07N 01°55' E 102°19'814.7
2016-Nov-25 13:33N 01°52' E 102°27'1414.0
2016-Nov-25 12:33N 01°46' E 102°39'7211.8
2016-Nov-25 06:27N 01°17' E 103°45'0 0.0
2016-Nov-25 00:33N 01°17' E 103°45'0 0.1
2016-Nov-24 23:33N 01°17' E 103°45'3 2.6
2016-Nov-24 22:33N 01°14' E 103°44'6 0.1
2016-Nov-22 20:05N 01°09' E 103°46'611.1
2016-Nov-22 19:31N 01°12' E 103°51'  
Track history (hours):
 
Tides and Currents Weather Stations Pressure Air Temp Water Temp Dewpoint Dewpoint Depression Visibility Wind Speed Wind Dir Waves Ship Positions

Hansa Rendsburg

Last reported at 2016-Nov-27 20:15 UTC. Time now 2016-Dec-03 11:43 UTC.
Position N 01°14' E 104°00'.

Type: Ship (hazmat cat A). MMSI: 636090636.

Date/timePositionNaut miles runAvg speedWind from/ knotsBaromVisibWave heightAir tempDewpointWater temp
2016-Nov-27 20:15N 01°14' E 104°00'912.6
2016-Nov-27 19:32N 01°11' E 103°52'8612.2
2016-Nov-27 12:32N 01°44' E 102°32'1414.0
2016-Nov-27 11:32N 01°50' E 102°20'5 0.1
2016-Nov-25 14:07N 01°55' E 102°19'814.7
2016-Nov-25 13:33N 01°52' E 102°27'1414.0
2016-Nov-25 12:33N 01°46' E 102°39'7211.8
2016-Nov-25 06:27N 01°17' E 103°45'0 0.0
2016-Nov-25 00:33N 01°17' E 103°45'0 0.1
2016-Nov-24 23:33N 01°17' E 103°45'3 2.6
2016-Nov-24 22:33N 01°14' E 103°44'6 0.1
2016-Nov-22 20:05N 01°09' E 103°46'611.1
2016-Nov-22 19:31N 01°12' E 103°51'  

Dump ship's entire track history